Time;durP1;ratioP1;P1;durP2;ratioP2;P2;SDS_P1;SDS_P2;PMS_P1;PMS_P2;Temp;Humidity;BMP_temperature;BMP_pressure;BME280_temperature;BME280_humidity;BME280_pressure;Samples;Min_cycle;Max_cycle;Signal;HPM_P1;HPM_P2
2022/09/19 00:01:10;;;;;;;1.80;1.70;;;12.20;99.90;;;;;;5029048;28;20177;-83
2022/09/19 00:03:40;;;;;;;3.20;1.70;;;12.20;99.90;;;;;;5030914;28;20523;-83
2022/09/19 00:06:09;;;;;;;1.70;1.70;;;12.20;99.90;;;;;;5030450;28;20162;-83
2022/09/19 00:08:38;;;;;;;1.73;1.63;;;12.30;99.90;;;;;;5030169;28;20175;-83
2022/09/19 00:11:06;;;;;;;2.30;2.10;;;12.30;99.90;;;;;;5030458;28;20204;-84
2022/09/19 00:13:33;;;;;;;3.90;2.07;;;12.30;99.90;;;;;;5030555;28;20523;-83
2022/09/19 00:15:59;;;;;;;2.00;1.90;;;12.30;99.90;;;;;;5030235;28;20177;-83
2022/09/19 00:18:27;;;;;;;1.80;1.70;;;12.20;99.90;;;;;;5030468;28;20204;-83
2022/09/19 00:20:53;;;;;;;1.70;1.70;;;12.30;99.90;;;;;;5031022;28;20320;-83
2022/09/19 00:26:07;;;;;;;1.70;1.60;;;12.30;99.90;;;;;;5030652;28;20196;-83
2022/09/19 00:28:34;;;;;;;2.80;1.70;;;12.20;99.90;;;;;;5030715;28;20184;-83
2022/09/19 00:31:00;;;;;;;4.57;1.97;;;12.30;99.90;;;;;;5030906;28;20194;-83
2022/09/19 00:33:30;;;;;;;2.17;2.07;;;12.30;99.90;;;;;;5031027;28;20168;-84
2022/09/19 00:36:00;;;;;;;2.00;1.80;;;12.20;99.90;;;;;;5033350;28;20189;-84
2022/09/19 00:38:27;;;;;;;2.33;2.20;;;12.20;99.90;;;;;;5032509;28;20190;-83
2022/09/19 00:40:54;;;;;;;2.20;2.00;;;12.20;99.90;;;;;;5050464;28;20234;-83
2022/09/19 00:43:22;;;;;;;2.57;2.07;;;12.30;99.90;;;;;;5050315;28;20173;-84
2022/09/19 00:45:48;;;;;;;1.70;1.60;;;12.30;99.90;;;;;;5035967;28;20645;-83
2022/09/19 00:48:16;;;;;;;1.80;1.70;;;12.30;99.90;;;;;;5031181;28;20624;-83
2022/09/19 00:50:51;;;;;;;2.40;2.00;;;12.20;99.90;;;;;;5030219;28;20170;-83
2022/09/19 00:53:21;;;;;;;2.50;1.90;;;12.20;99.90;;;;;;5030194;28;20167;-83
2022/09/19 00:55:51;;;;;;;1.73;1.67;;;12.10;99.90;;;;;;5030001;28;20172;-84
2022/09/19 00:58:36;;;;;;;1.90;1.80;;;12.10;99.90;;;;;;5029865;28;20625;-83
2022/09/19 01:01:03;;;;;;;1.83;1.70;;;12.10;99.90;;;;;;5030221;28;20277;-83
2022/09/19 01:03:29;;;;;;;1.90;1.80;;;12.20;99.90;;;;;;5029739;28;20176;-83
2022/09/19 01:06:34;;;;;;;2.20;2.10;;;12.20;99.90;;;;;;5029852;28;20198;-84
2022/09/19 01:09:18;;;;;;;6.10;1.67;;;12.20;99.90;;;;;;5028554;28;20200;-84
2022/09/19 01:12:03;;;;;;;1.70;1.60;;;12.20;99.90;;;;;;5030576;28;20280;-83
2022/09/19 01:14:53;;;;;;;1.90;1.80;;;12.20;99.90;;;;;;5031666;28;20199;-84
2022/09/19 01:17:45;;;;;;;2.40;2.00;;;12.20;99.90;;;;;;5030441;28;20212;-84
2022/09/19 01:20:29;;;;;;;3.30;1.90;;;12.20;99.90;;;;;;5033291;28;20223;-83
2022/09/19 01:23:25;;;;;;;2.93;1.77;;;12.10;99.90;;;;;;5030361;28;20251;-83
2022/09/19 01:26:09;;;;;;;2.07;1.90;;;12.20;99.90;;;;;;5029567;28;20170;-83
2022/09/19 01:29:07;;;;;;;2.20;2.10;;;12.10;99.90;;;;;;5029535;28;20263;-83
2022/09/19 01:31:41;;;;;;;1.93;1.83;;;12.20;99.90;;;;;;5021436;28;20631;-83
2022/09/19 01:34:16;;;;;;;1.60;1.60;;;12.30;99.90;;;;;;5029493;28;20189;-84
2022/09/19 01:36:46;;;;;;;2.17;2.07;;;12.30;99.90;;;;;;5029410;28;20606;-83
2022/09/19 01:39:17;;;;;;;2.00;1.90;;;12.20;99.90;;;;;;5029433;28;20579;-83
2022/09/19 01:41:53;;;;;;;2.33;2.00;;;12.20;99.90;;;;;;5030081;28;20154;-83
2022/09/19 01:44:21;;;;;;;4.03;2.17;;;12.20;99.90;;;;;;5030048;28;20224;-83
2022/09/19 01:47:06;;;;;;;3.27;2.10;;;12.20;99.90;;;;;;5033104;28;20221;-83
2022/09/19 01:49:57;;;;;;;2.90;1.93;;;12.20;99.90;;;;;;5031660;28;20204;-83
2022/09/19 01:52:49;;;;;;;2.20;2.10;;;12.10;99.90;;;;;;5032879;28;20170;-83
2022/09/19 01:55:17;;;;;;;3.13;2.27;;;12.20;99.90;;;;;;5032875;28;20161;-84
2022/09/19 01:58:04;;;;;;;2.20;2.00;;;12.20;99.90;;;;;;5032771;28;20300;-83
2022/09/19 02:00:31;;;;;;;2.47;2.20;;;12.10;99.90;;;;;;5032805;28;20164;-84
2022/09/19 02:03:22;;;;;;;3.10;1.93;;;12.20;99.90;;;;;;5033380;28;20175;-83
2022/09/19 02:06:00;;;;;;;2.10;1.90;;;12.10;99.90;;;;;;5033771;28;20162;-83
2022/09/19 02:08:47;;;;;;;2.23;2.10;;;12.10;99.90;;;;;;5034227;28;20188;-83
2022/09/19 02:11:17;;;;;;;2.30;2.10;;;12.10;99.90;;;;;;5034279;28;20932;-83
2022/09/19 02:13:51;;;;;;;3.27;2.37;;;12.10;99.90;;;;;;5047915;28;20534;-83
2022/09/19 02:16:25;;;;;;;2.50;1.97;;;12.10;99.90;;;;;;5049231;28;20161;-83
2022/09/19 02:18:58;;;;;;;1.87;1.77;;;12.10;99.90;;;;;;5037934;28;20183;-83
2022/09/19 02:21:38;;;;;;;2.10;2.00;;;12.00;99.90;;;;;;5033159;28;20179;-83
2022/09/19 02:24:13;;;;;;;1.77;1.67;;;11.90;99.90;;;;;;5032545;28;20168;-83
2022/09/19 02:26:42;;;;;;;2.40;1.70;;;11.90;99.90;;;;;;5032233;28;20157;-83
2022/09/19 02:29:14;;;;;;;2.17;1.47;;;11.90;99.90;;;;;;5030765;28;20624;-83
2022/09/19 02:31:41;;;;;;;1.73;1.63;;;11.90;99.90;;;;;;5032685;28;20550;-83
2022/09/19 02:34:08;;;;;;;1.80;1.70;;;12.00;99.90;;;;;;5030860;28;20183;-83
2022/09/19 02:37:01;;;;;;;1.60;1.50;;;12.00;99.90;;;;;;5032057;28;20177;-83
2022/09/19 02:40:02;;;;;;;1.63;1.33;;;11.90;99.90;;;;;;5031980;28;20739;-83
2022/09/19 02:42:49;;;;;;;2.23;1.70;;;12.00;99.90;;;;;;5032224;28;20157;-83
2022/09/19 02:45:32;;;;;;;1.50;1.50;;;11.90;99.90;;;;;;5031890;28;20614;-83
2022/09/19 02:48:11;;;;;;;1.63;1.53;;;11.80;99.90;;;;;;5031684;28;20168;-83
2022/09/19 02:51:01;;;;;;;1.67;1.60;;;11.90;99.90;;;;;;5031756;28;20156;-83
2022/09/19 02:53:33;;;;;;;1.90;1.67;;;11.90;99.90;;;;;;5031515;28;20170;-84
2022/09/19 02:56:02;;;;;;;1.83;1.73;;;11.80;99.90;;;;;;5031724;28;20168;-84
2022/09/19 02:58:36;;;;;;;1.87;1.77;;;11.80;99.90;;;;;;5031458;28;20294;-84
2022/09/19 03:01:12;;;;;;;1.67;1.60;;;11.80;99.90;;;;;;5030338;28;20308;-84
2022/09/19 03:06:52;;;;;;;1.83;1.77;;;11.70;99.90;;;;;;5031369;28;20207;-83
2022/09/19 03:09:22;;;;;;;2.30;2.10;;;11.60;99.90;;;;;;5031017;28;20194;-84
2022/09/19 03:11:55;;;;;;;1.67;1.63;;;11.60;99.90;;;;;;5031277;28;20553;-84
2022/09/19 03:14:21;;;;;;;6.53;2.33;;;11.70;99.90;;;;;;5030095;28;20701;-84
2022/09/19 03:16:49;;;;;;;3.33;2.03;;;11.70;99.90;;;;;;5031056;28;20805;-84
2022/09/19 03:19:15;;;;;;;2.03;1.90;;;11.80;99.90;;;;;;5029714;28;20659;-84
2022/09/19 03:21:42;;;;;;;2.13;2.03;;;11.80;99.90;;;;;;5031508;28;20244;-84
2022/09/19 03:24:08;;;;;;;2.20;1.80;;;11.80;99.90;;;;;;5031179;28;20172;-83
2022/09/19 03:26:36;;;;;;;2.20;1.90;;;11.90;99.90;;;;;;5031260;28;20541;-83
2022/09/19 03:29:08;;;;;;;2.20;2.10;;;11.90;99.90;;;;;;5031217;28;20172;-83
2022/09/19 03:31:34;;;;;;;2.43;1.97;;;11.80;99.90;;;;;;5030958;28;21012;-83
2022/09/19 03:34:00;;;;;;;2.77;2.03;;;11.80;99.90;;;;;;5030802;28;20253;-83
2022/09/19 03:36:29;;;;;;;2.50;2.10;;;11.90;99.90;;;;;;5030751;28;20315;-83
2022/09/19 03:38:59;;;;;;;2.40;2.20;;;11.80;99.90;;;;;;5031749;28;20265;-83
2022/09/19 03:41:24;;;;;;;2.60;1.90;;;11.80;99.90;;;;;;5032064;28;20543;-83
2022/09/19 03:43:50;;;;;;;3.80;1.93;;;11.70;99.90;;;;;;5032220;28;20266;-83
2022/09/19 03:46:22;;;;;;;3.03;1.90;;;11.70;99.90;;;;;;5035129;28;20310;-83
2022/09/19 03:48:48;;;;;;;2.07;1.83;;;11.70;99.90;;;;;;5047469;28;20428;-83
2022/09/19 03:51:16;;;;;;;2.13;1.93;;;11.40;99.90;;;;;;5032807;28;20339;-83
2022/09/19 03:53:42;;;;;;;2.37;2.17;;;11.50;99.90;;;;;;5030945;28;20195;-83
2022/09/19 03:56:13;;;;;;;2.40;2.00;;;11.50;99.90;;;;;;5031536;28;20184;-84
2022/09/19 03:58:39;;;;;;;2.03;1.90;;;11.50;99.90;;;;;;5033877;28;20207;-84
2022/09/19 04:01:06;;;;;;;2.10;2.00;;;11.40;99.90;;;;;;5030714;28;20173;-84
2022/09/19 04:03:33;;;;;;;1.63;1.53;;;11.20;99.90;;;;;;5029011;28;20187;-84
2022/09/19 04:06:00;;;;;;;3.33;1.70;;;11.20;99.90;;;;;;5030397;28;20634;-83
2022/09/19 04:08:27;;;;;;;2.83;1.60;;;11.10;99.90;;;;;;5029907;28;20206;-84
2022/09/19 04:10:53;;;;;;;2.30;1.67;;;11.10;99.90;;;;;;5030112;28;20187;-83
2022/09/19 04:13:22;;;;;;;2.87;1.47;;;11.10;99.90;;;;;;5030225;28;20558;-83
2022/09/19 04:15:51;;;;;;;2.50;1.50;;;11.00;99.90;;;;;;5030261;28;20177;-83
2022/09/19 04:18:18;;;;;;;2.60;1.73;;;11.00;99.90;;;;;;5029518;28;20219;-83
2022/09/19 04:20:47;;;;;;;1.83;1.73;;;11.10;99.90;;;;;;5030299;28;20186;-84
2022/09/19 04:23:16;;;;;;;1.67;1.50;;;11.10;99.90;;;;;;5030655;28;20530;-83
2022/09/19 04:25:42;;;;;;;1.90;1.60;;;11.00;99.90;;;;;;5030388;28;20184;-83
2022/09/19 04:28:11;;;;;;;2.17;1.90;;;11.00;99.90;;;;;;5030145;28;20273;-84
2022/09/19 04:30:40;;;;;;;1.60;1.60;;;11.00;99.90;;;;;;5030513;28;20560;-84
2022/09/19 04:33:10;;;;;;;5.10;2.00;;;11.00;99.90;;;;;;5030071;28;20184;-85
2022/09/19 04:35:36;;;;;;;2.33;1.83;;;11.00;99.90;;;;;;5030182;28;20229;-84
2022/09/19 04:38:12;;;;;;;3.47;1.90;;;11.00;99.90;;;;;;5030120;28;20718;-85
2022/09/19 04:40:42;;;;;;;2.13;1.90;;;10.90;99.90;;;;;;5030206;28;20170;-84
2022/09/19 04:43:09;;;;;;;3.03;1.90;;;10.90;99.90;;;;;;5029927;28;20193;-84
2022/09/19 04:45:37;;;;;;;1.90;1.80;;;10.90;99.90;;;;;;5030461;28;20231;-84
2022/09/19 04:48:05;;;;;;;2.10;2.00;;;10.90;99.90;;;;;;5030052;28;20202;-84
2022/09/19 04:50:35;;;;;;;3.63;2.20;;;10.90;99.90;;;;;;5030096;28;20233;-84
2022/09/19 04:53:02;;;;;;;2.17;1.80;;;10.80;99.90;;;;;;5030195;28;20235;-83
2022/09/19 04:55:28;;;;;;;2.10;2.00;;;10.80;99.90;;;;;;5029963;28;20265;-84
2022/09/19 04:57:55;;;;;;;2.13;2.00;;;10.70;99.90;;;;;;5030265;28;20216;-84
2022/09/19 05:00:38;;;;;;;4.33;2.20;;;10.70;99.90;;;;;;5029738;28;20180;-83
2022/09/19 05:03:11;;;;;;;2.37;2.17;;;10.70;99.90;;;;;;5025006;28;20271;-84
2022/09/19 05:05:44;;;;;;;2.20;2.10;;;10.70;99.90;;;;;;5009732;28;20168;-83
2022/09/19 05:08:11;;;;;;;2.40;2.20;;;10.70;99.90;;;;;;5011555;28;20169;-84
2022/09/19 05:10:37;;;;;;;3.43;2.50;;;10.70;99.90;;;;;;5009824;28;20182;-83
2022/09/19 05:13:02;;;;;;;2.43;2.27;;;10.80;99.90;;;;;;5010220;28;20182;-83
2022/09/19 05:15:28;;;;;;;2.20;2.10;;;10.70;99.90;;;;;;5010374;28;20177;-83
2022/09/19 05:17:55;;;;;;;2.50;2.30;;;10.80;99.90;;;;;;5010865;28;20218;-83
2022/09/19 05:20:25;;;;;;;2.80;2.33;;;10.70;99.90;;;;;;5020447;28;20195;-84
2022/09/19 05:22:56;;;;;;;2.50;2.40;;;10.70;99.90;;;;;;5056407;28;20158;-84
2022/09/19 05:25:22;;;;;;;2.80;2.60;;;10.60;99.90;;;;;;5043847;28;20204;-85
2022/09/19 05:27:48;;;;;;;2.37;2.20;;;10.60;99.90;;;;;;5034571;28;20183;-84
2022/09/19 05:30:14;;;;;;;3.60;2.00;;;10.50;99.90;;;;;;5033820;28;20184;-84
2022/09/19 05:32:44;;;;;;;4.67;2.63;;;10.50;99.90;;;;;;5033797;28;20574;-84
2022/09/19 05:35:11;;;;;;;3.00;2.63;;;10.60;99.90;;;;;;5032139;28;20266;-85
2022/09/19 05:37:44;;;;;;;2.77;2.57;;;10.50;99.90;;;;;;5033382;28;20206;-85
2022/09/19 05:40:10;;;;;;;6.47;2.23;;;10.60;99.90;;;;;;5034637;28;20205;-84
2022/09/19 05:42:43;;;;;;;2.80;2.60;;;10.60;99.90;;;;;;5034158;28;20186;-84
2022/09/19 05:45:11;;;;;;;2.40;2.17;;;10.60;99.90;;;;;;5032698;28;20713;-85
2022/09/19 05:47:40;;;;;;;4.27;2.20;;;10.60;99.90;;;;;;5033700;28;20183;-85
2022/09/19 05:50:12;;;;;;;3.43;1.90;;;10.60;99.90;;;;;;5033045;28;20194;-85
2022/09/19 05:55:25;;;;;;;5.23;2.30;;;10.60;99.90;;;;;;5033268;28;20642;-84
2022/09/19 05:57:52;;;;;;;10.97;2.37;;;10.70;99.90;;;;;;5032856;28;20207;-85
2022/09/19 06:00:20;;;;;;;5.57;2.13;;;10.70;99.90;;;;;;5033235;28;20172;-84
2022/09/19 06:02:57;;;;;;;1.90;1.80;;;10.90;99.90;;;;;;5033666;28;20653;-85
2022/09/19 06:05:24;;;;;;;3.13;2.03;;;11.00;99.90;;;;;;5033739;28;20194;-84
2022/09/19 06:07:51;;;;;;;3.13;1.47;;;11.10;99.90;;;;;;5033496;28;20232;-85
2022/09/19 06:10:20;;;;;;;23.97;4.10;;;11.20;99.90;;;;;;5035787;28;20184;-84
2022/09/19 06:12:46;;;;;;;2.70;1.80;;;11.30;99.90;;;;;;5033494;28;20268;-84
2022/09/19 06:15:12;;;;;;;1.33;1.33;;;11.60;99.90;;;;;;5033167;28;20649;-85
2022/09/19 06:17:38;;;;;;;1.80;1.10;;;11.80;99.90;;;;;;5032983;28;20751;-85
2022/09/19 06:20:05;;;;;;;2.00;1.17;;;11.80;99.90;;;;;;5032701;28;20555;-85
2022/09/19 06:22:30;;;;;;;6.43;1.60;;;12.00;99.90;;;;;;5032870;28;20238;-85
2022/09/19 06:24:56;;;;;;;3.40;1.50;;;12.00;99.90;;;;;;5031681;28;20703;-84
2022/09/19 06:27:23;;;;;;;2.97;1.20;;;12.20;99.90;;;;;;5033256;28;20180;-83
2022/09/19 06:29:49;;;;;;;3.97;1.10;;;12.20;99.90;;;;;;5032269;28;20200;-84
2022/09/19 06:32:14;;;;;;;3.30;1.27;;;12.20;99.90;;;;;;5032887;28;20219;-84
2022/09/19 06:34:40;;;;;;;1.23;1.07;;;12.20;99.90;;;;;;5032305;28;20173;-85
2022/09/19 06:37:06;;;;;;;2.10;1.37;;;12.20;99.90;;;;;;5032529;28;20203;-84
2022/09/19 06:39:32;;;;;;;1.10;1.10;;;12.30;99.90;;;;;;5032977;28;20180;-84
2022/09/19 06:41:57;;;;;;;1.30;1.20;;;12.30;99.90;;;;;;5032692;28;20184;-84
2022/09/19 06:44:24;;;;;;;3.80;1.10;;;12.30;99.90;;;;;;5032907;28;20691;-85
2022/09/19 06:46:50;;;;;;;13.20;1.87;;;12.40;99.90;;;;;;5033389;28;20181;-85
2022/09/19 06:49:16;;;;;;;1.80;0.70;;;12.50;99.90;;;;;;5033049;28;20180;-85
2022/09/19 06:51:42;;;;;;;0.97;0.70;;;12.60;99.70;;;;;;5032514;28;20191;-85
2022/09/19 06:54:08;;;;;;;1.07;1.07;;;12.80;99.30;;;;;;5044046;28;20183;-84
2022/09/19 06:56:34;;;;;;;0.53;0.53;;;12.70;99.10;;;;;;5054155;28;20215;-85
2022/09/19 06:59:00;;;;;;;2.30;0.90;;;12.80;98.90;;;;;;5034122;28;20202;-84
2022/09/19 07:01:26;;;;;;;0.77;0.77;;;12.90;97.80;;;;;;5031696;28;20181;-84
2022/09/19 07:03:51;;;;;;;0.70;0.70;;;13.00;96.70;;;;;;5032746;28;20194;-84
2022/09/19 07:06:17;;;;;;;2.93;0.70;;;13.10;95.90;;;;;;5030966;28;20187;-84
2022/09/19 07:08:44;;;;;;;1.33;0.90;;;13.20;95.20;;;;;;5032442;28;20243;-86
2022/09/19 07:11:09;;;;;;;0.40;0.40;;;13.30;95.00;;;;;;5036941;28;20267;-85
2022/09/19 07:13:35;;;;;;;54.40;4.77;;;13.40;93.70;;;;;;5039359;28;20665;-85
2022/09/19 07:16:03;;;;;;;1.30;1.20;;;13.40;93.30;;;;;;5031795;28;20268;-84
2022/09/19 07:18:36;;;;;;;0.60;0.60;;;13.50;93.20;;;;;;5032021;28;20210;-85
2022/09/19 07:21:02;;;;;;;40.13;3.63;;;13.60;92.40;;;;;;5035289;28;20165;-86
2022/09/19 07:23:28;;;;;;;1.13;0.80;;;13.60;92.50;;;;;;5036139;28;20202;-85
2022/09/19 07:25:55;;;;;;;61.27;5.20;;;13.70;92.10;;;;;;5031989;28;20176;-86
2022/09/19 07:28:22;;;;;;;14.87;1.80;;;13.80;91.70;;;;;;5031517;28;20602;-85
2022/09/19 07:30:48;;;;;;;20.53;2.23;;;13.80;92.20;;;;;;5031656;28;20176;-85
2022/09/19 07:33:17;;;;;;;4.80;0.80;;;13.90;91.70;;;;;;5031577;28;20239;-84
2022/09/19 07:35:43;;;;;;;1.23;0.27;;;14.00;90.80;;;;;;5031279;28;20991;-84
2022/09/19 07:38:18;;;;;;;0.40;0.40;;;14.00;91.40;;;;;;5029871;28;20212;-84
2022/09/19 07:40:45;;;;;;;0.27;0.27;;;14.00;90.30;;;;;;5031510;28;20255;-84
2022/09/19 07:43:13;;;;;;;0.57;0.47;;;14.10;90.30;;;;;;5029356;28;20172;-84
2022/09/19 07:45:43;;;;;;;0.40;0.40;;;14.10;89.80;;;;;;5031031;28;20234;-83
2022/09/19 07:48:10;;;;;;;0.43;0.43;;;14.20;90.20;;;;;;5031510;28;20180;-83
2022/09/19 07:50:36;;;;;;;0.50;0.30;;;14.20;90.00;;;;;;5031514;28;20230;-84
2022/09/19 07:53:11;;;;;;;0.13;0.13;;;14.20;89.70;;;;;;5029938;28;20181;-83
2022/09/19 07:55:37;;;;;;;0.53;0.53;;;14.20;90.10;;;;;;5031395;28;20627;-83
2022/09/19 07:58:06;;;;;;;0.70;0.70;;;14.30;89.50;;;;;;5030931;28;20200;-85
2022/09/19 08:00:35;;;;;;;0.30;0.30;;;14.30;90.00;;;;;;5031079;28;20176;-84
2022/09/19 08:03:21;;;;;;;0.30;0.30;;;14.40;90.40;;;;;;5030811;28;20218;-84
2022/09/19 08:05:49;;;;;;;1.33;0.40;;;14.50;88.70;;;;;;5030748;28;20180;-85
2022/09/19 08:08:17;;;;;;;0.23;0.23;;;14.60;88.80;;;;;;5030722;28;20623;-84
2022/09/19 08:10:43;;;;;;;3.70;0.63;;;14.70;88.60;;;;;;5030648;28;20713;-84
2022/09/19 08:13:11;;;;;;;0.23;0.23;;;14.90;87.80;;;;;;5030545;28;20767;-83
2022/09/19 08:15:38;;;;;;;0.33;0.33;;;15.10;88.00;;;;;;5030700;28;20177;-83
2022/09/19 08:18:05;;;;;;;1.50;0.47;;;15.40;87.90;;;;;;5030513;28;20227;-84
2022/09/19 08:20:33;;;;;;;0.30;0.30;;;15.70;86.50;;;;;;5030522;28;20180;-84
2022/09/19 08:23:09;;;;;;;0.20;0.20;;;15.90;85.60;;;;;;5031299;28;20726;-83
2022/09/19 08:25:38;;;;;;;0.67;0.67;;;16.10;85.10;;;;;;5031689;28;20157;-84
2022/09/19 08:28:04;;;;;;;3.93;2.73;;;16.30;85.50;;;;;;5031762;28;20170;-83
2022/09/19 08:30:33;;;;;;;29.43;2.63;;;16.50;84.50;;;;;;5031860;28;20172;-83
2022/09/19 08:33:01;;;;;;;0.43;0.43;;;16.70;82.60;;;;;;5044929;28;20176;-84
2022/09/19 08:35:29;;;;;;;0.60;0.40;;;16.70;82.30;;;;;;5051987;28;20188;-84
2022/09/19 08:37:57;;;;;;;4.63;1.67;;;16.80;81.50;;;;;;5043705;28;20204;-85
2022/09/19 08:40:52;;;;;;;4.43;0.50;;;16.90;82.00;;;;;;5033741;28;20196;-83
2022/09/19 08:43:31;;;;;;;3.80;0.50;;;17.10;81.50;;;;;;5026709;28;20729;-84
2022/09/19 08:46:06;;;;;;;2.40;0.70;;;17.40;79.80;;;;;;5029019;28;20188;-83
2022/09/19 08:48:51;;;;;;;1.97;0.53;;;17.30;77.90;;;;;;5030186;28;20191;-84
2022/09/19 08:51:38;;;;;;;0.20;0.20;;;16.90;77.10;;;;;;5030302;28;20568;-84
2022/09/19 08:54:17;;;;;;;0.37;0.37;;;16.80;78.20;;;;;;5032421;28;20169;-84
2022/09/19 08:56:44;;;;;;;0.37;0.30;;;16.80;78.10;;;;;;5034214;28;20175;-84
2022/09/19 08:59:16;;;;;;;0.50;0.30;;;16.80;77.70;;;;;;5033230;28;20211;-84
2022/09/19 09:01:42;;;;;;;0.50;0.50;;;16.80;79.50;;;;;;5034406;28;20176;-83
2022/09/19 09:04:22;;;;;;;2.20;2.10;;;17.00;80.30;;;;;;5034485;28;20176;-84
2022/09/19 09:07:21;;;;;;;0.43;0.40;;;17.00;78.00;;;;;;5034236;28;20171;-83
2022/09/19 09:10:07;;;;;;;0.37;0.37;;;16.70;77.60;;;;;;5033991;28;20193;-83
2022/09/19 09:12:59;;;;;;;0.20;0.20;;;16.60;79.00;;;;;;5033858;28;20163;-82
2022/09/19 09:15:28;;;;;;;0.40;0.40;;;16.70;78.60;;;;;;5033879;28;20203;-83
2022/09/19 09:18:20;;;;;;;0.30;0.30;;;16.70;77.70;;;;;;5032072;28;20721;-84
2022/09/19 09:21:07;;;;;;;0.30;0.30;;;16.80;78.50;;;;;;5033899;28;20164;-83
2022/09/19 09:23:40;;;;;;;1.27;0.30;;;16.90;77.20;;;;;;5033759;28;20188;-83
2022/09/19 09:26:16;;;;;;;0.50;0.50;;;16.80;77.80;;;;;;5034123;28;20164;-83
2022/09/19 09:28:44;;;;;;;1.33;0.30;;;16.90;78.50;;;;;;5033324;28;20171;-83
2022/09/19 09:31:25;;;;;;;0.47;0.20;;;16.80;76.20;;;;;;5033375;28;20689;-83
2022/09/19 09:34:07;;;;;;;1.20;0.20;;;16.80;76.80;;;;;;5032056;28;20172;-83
2022/09/19 09:36:42;;;;;;;0.47;0.47;;;16.80;76.30;;;;;;5033487;28;20163;-83
2022/09/19 09:39:13;;;;;;;7.30;0.60;;;16.90;75.70;;;;;;5032808;28;20273;-84
2022/09/19 09:41:47;;;;;;;0.63;0.63;;;16.90;75.90;;;;;;5034120;28;20635;-84
2022/09/19 09:44:13;;;;;;;1.20;0.67;;;17.00;74.50;;;;;;5033215;28;20231;-85
2022/09/19 09:46:52;;;;;;;2.40;0.40;;;17.10;74.80;;;;;;5033496;28;20173;-84
2022/09/19 09:49:21;;;;;;;4.10;0.90;;;17.00;72.80;;;;;;5033442;28;20630;-84
2022/09/19 09:51:59;;;;;;;0.57;0.53;;;16.80;73.30;;;;;;5033446;28;20173;-84
2022/09/19 09:57:45;;;;;;;42.47;5.37;;;16.60;73.10;;;;;;5032961;28;20251;-84
2022/09/19 10:03:36;;;;;;;0.57;0.57;;;16.40;74.00;;;;;;5052452;28;20184;-85
2022/09/19 10:06:35;;;;;;;3.50;1.40;;;16.20;74.50;;;;;;5039312;28;20183;-87
2022/09/19 10:09:10;;;;;;;0.30;0.30;;;15.90;74.00;;;;;;5038511;28;20248;-84
2022/09/19 10:11:48;;;;;;;1.07;0.33;;;15.70;74.90;;;;;;5049565;28;20176;-85
2022/09/19 10:14:19;;;;;;;0.60;0.60;;;15.80;75.50;;;;;;5052613;28;20172;-85
2022/09/19 10:16:53;;;;;;;35.90;3.70;;;15.80;75.20;;;;;;5040329;28;20188;-85
2022/09/19 10:19:44;;;;;;;2.50;1.40;;;15.80;75.80;;;;;;5034825;28;20175;-85
2022/09/19 10:22:14;;;;;;;1.77;0.30;;;15.80;76.00;;;;;;5032224;28;20173;-85
2022/09/19 10:24:50;;;;;;;0.33;0.33;;;15.80;74.40;;;;;;5033082;28;20716;-85
2022/09/19 10:27:24;;;;;;;0.30;0.30;;;15.80;75.50;;;;;;5032749;28;20524;-85
2022/09/19 10:30:01;;;;;;;2.63;0.60;;;15.90;76.30;;;;;;5033093;28;20175;-86
2022/09/19 10:32:37;;;;;;;0.30;0.30;;;15.90;74.60;;;;;;5032992;28;20179;-85
2022/09/19 10:35:32;;;;;;;0.30;0.30;;;15.90;75.00;;;;;;5032922;28;20175;-86
2022/09/19 10:38:01;;;;;;;0.20;0.20;;;15.90;74.70;;;;;;5032651;28;20560;-85
2022/09/19 10:40:31;;;;;;;0.30;0.30;;;15.90;74.90;;;;;;5032438;28;20227;-86
2022/09/19 10:42:59;;;;;;;0.30;0.20;;;16.00;76.60;;;;;;5032823;28;20172;-86
2022/09/19 10:45:32;;;;;;;1.40;0.30;;;16.10;74.40;;;;;;5031135;28;20224;-86
2022/09/19 10:48:17;;;;;;;0.40;0.40;;;16.00;74.50;;;;;;5032514;28;20175;-85
2022/09/19 10:50:47;;;;;;;0.47;0.30;;;16.10;75.90;;;;;;5031287;28;20169;-85
2022/09/19 10:53:26;;;;;;;0.30;0.30;;;16.20;75.40;;;;;;5031928;28;20252;-86
2022/09/19 10:55:52;;;;;;;0.37;0.37;;;16.10;75.80;;;;;;5030922;28;20189;-86
2022/09/19 10:58:26;;;;;;;0.40;0.40;;;16.20;75.80;;;;;;5032972;28;20595;-86
2022/09/19 11:01:07;;;;;;;0.20;0.20;;;16.30;74.80;;;;;;5032525;28;20189;-86
2022/09/19 11:03:39;;;;;;;0.80;0.80;;;16.40;74.10;;;;;;5034939;28;20168;-86
2022/09/19 11:06:16;;;;;;;1.70;0.90;;;16.40;75.30;;;;;;5035138;28;20616;-85
2022/09/19 11:08:53;;;;;;;0.23;0.23;;;16.40;74.20;;;;;;5048526;28;20177;-86
2022/09/19 11:11:40;;;;;;;1.30;1.30;;;16.40;74.40;;;;;;5033578;28;20243;-85
2022/09/19 11:14:07;;;;;;;0.60;0.60;;;16.40;74.80;;;;;;5034940;28;20156;-85
2022/09/19 11:17:02;;;;;;;2.20;0.50;;;16.30;77.70;;;;;;5031582;28;20177;-86
2022/09/19 11:19:49;;;;;;;5.47;0.93;;;16.30;75.10;;;;;;5031793;28;20248;-86
2022/09/19 11:22:31;;;;;;;2.00;0.30;;;16.30;73.90;;;;;;5032443;28;20296;-85
2022/09/19 11:25:11;;;;;;;0.43;0.43;;;16.40;74.40;;;;;;5032046;28;20160;-85
2022/09/19 11:28:14;;;;;;;0.27;0.27;;;16.40;74.30;;;;;;5032295;28;20165;-84
2022/09/19 11:31:20;;;;;;;1.40;0.80;;;16.50;74.60;;;;;;5032619;28;20187;-84
2022/09/19 11:33:56;;;;;;;0.40;0.20;;;16.50;73.70;;;;;;4976690;28;20190;-84
2022/09/19 11:36:44;;;;;;;0.30;0.30;;;16.60;73.20;;;;;;4992889;28;20165;-84
2022/09/19 11:39:16;;;;;;;0.30;0.30;;;16.50;73.20;;;;;;4991679;28;20213;-85
2022/09/19 11:42:16;;;;;;;2.50;0.40;;;16.50;73.40;;;;;;4992089;28;20459;-84
2022/09/19 11:45:02;;;;;;;0.40;0.40;;;16.50;73.60;;;;;;4993094;28;20224;-84
2022/09/19 11:47:35;;;;;;;1.00;0.40;;;16.60;73.60;;;;;;5002667;28;20142;-85
2022/09/19 11:50:23;;;;;;;0.83;0.50;;;16.70;74.50;;;;;;5014992;28;20189;-84
2022/09/19 11:53:30;;;;;;;14.23;2.20;;;16.80;72.20;;;;;;4997285;28;20223;-85
2022/09/19 11:56:17;;;;;;;0.50;0.30;;;16.80;72.60;;;;;;4975688;28;20724;-84
2022/09/19 11:59:07;;;;;;;0.30;0.30;;;16.80;72.70;;;;;;4991151;28;21041;-84
2022/09/19 12:01:59;;;;;;;0.57;0.20;;;16.80;73.00;;;;;;4991467;28;20213;-84
2022/09/19 12:05:01;;;;;;;1.40;0.30;;;16.80;72.50;;;;;;4991570;28;20602;-84
2022/09/19 12:08:07;;;;;;;0.10;0.10;;;16.90;72.50;;;;;;4968130;28;20196;-84
2022/09/19 12:11:18;;;;;;;0.20;0.20;;;17.00;71.80;;;;;;5013066;28;20194;-84
2022/09/19 12:13:53;;;;;;;0.30;0.30;;;16.90;72.70;;;;;;5026271;28;20189;-84
2022/09/19 12:16:40;;;;;;;39.60;4.50;;;16.90;72.50;;;;;;5030790;28;20190;-84
2022/09/19 12:19:16;;;;;;;0.67;0.20;;;16.90;73.00;;;;;;5031382;28;20299;-84
2022/09/19 12:21:57;;;;;;;1.10;0.30;;;16.90;73.00;;;;;;5030685;28;20193;-84
2022/09/19 12:27:41;;;;;;;2.10;0.40;;;16.90;72.50;;;;;;5030994;28;20656;-83
2022/09/19 12:30:11;;;;;;;1.53;1.17;;;16.80;73.50;;;;;;5031199;28;20203;-83
2022/09/19 12:32:51;;;;;;;0.87;0.20;;;16.80;73.90;;;;;;5033577;28;20188;-83
2022/09/19 12:35:45;;;;;;;0.70;0.70;;;16.90;73.80;;;;;;5035993;28;20250;-83
2022/09/19 12:38:56;;;;;;;0.50;0.50;;;17.00;73.50;;;;;;5031569;28;20227;-84
2022/09/19 12:41:42;;;;;;;0.80;0.60;;;17.00;73.50;;;;;;5036333;28;20194;-83
2022/09/19 12:44:35;;;;;;;0.20;0.20;;;16.90;73.10;;;;;;5039166;28;20693;-83
2022/09/19 12:47:25;;;;;;;0.30;0.30;;;16.90;74.20;;;;;;5034735;28;20165;-85
2022/09/19 12:50:00;;;;;;;0.10;0.10;;;16.90;74.70;;;;;;5031251;28;20199;-84
2022/09/19 12:52:34;;;;;;;3.03;1.57;;;16.90;73.60;;;;;;5029485;28;20258;-84
2022/09/19 12:55:21;;;;;;;1.43;1.00;;;16.90;74.10;;;;;;5031787;28;20593;-84
2022/09/19 12:57:57;;;;;;;3.37;0.40;;;16.90;73.10;;;;;;5031248;28;20722;-84
2022/09/19 13:00:24;;;;;;;1.63;0.33;;;16.90;72.70;;;;;;5030293;28;20167;-84
2022/09/19 13:03:05;;;;;;;0.60;0.30;;;16.80;72.00;;;;;;5030722;28;20724;-85
2022/09/19 13:05:49;;;;;;;1.37;0.40;;;16.90;73.30;;;;;;5029044;28;20191;-84
2022/09/19 13:08:17;;;;;;;0.30;0.30;;;16.90;73.60;;;;;;5030677;28;20254;-85
2022/09/19 13:11:07;;;;;;;0.40;0.40;;;16.90;73.40;;;;;;5030336;28;20180;-84
2022/09/19 13:13:57;;;;;;;0.30;0.30;;;16.90;72.70;;;;;;5031302;28;20197;-84
2022/09/19 13:16:32;;;;;;;0.33;0.33;;;16.80;72.40;;;;;;5032336;28;20164;-85
2022/09/19 13:24:42;;;;;;;3.43;0.40;;;16.80;72.30;;;;;;5050311;28;20176;-84
2022/09/19 13:27:09;;;;;;;0.33;0.33;;;16.80;70.80;;;;;;5054232;28;20172;-84
2022/09/19 13:29:35;;;;;;;0.77;0.30;;;16.90;72.00;;;;;;5041125;28;20211;-84
2022/09/19 13:32:02;;;;;;;1.23;0.50;;;17.00;70.90;;;;;;5030537;28;20235;-84
2022/09/19 13:35:00;;;;;;;0.37;0.37;;;17.10;71.20;;;;;;5031104;28;20163;-84
2022/09/19 13:37:26;;;;;;;0.40;0.27;;;17.00;71.10;;;;;;5030206;28;20200;-84
2022/09/19 13:40:13;;;;;;;0.40;0.27;;;17.00;71.80;;;;;;5029139;28;20746;-84
2022/09/19 13:42:53;;;;;;;0.50;0.50;;;17.00;72.50;;;;;;5032917;28;20215;-83
2022/09/19 13:45:39;;;;;;;0.30;0.30;;;17.00;73.10;;;;;;5031729;28;20267;-84